»·PEaware :: N8625C KMHV-KSBD

N8625C :: KMHV-KSBD

FLIGHT INFORMATION

Flight Status: Arrived
Operator: Privately registered:
United States
More flights under this callsign
Pilot: Anonymous 17070 (17070)
Aircraft: PIPER PA-44 SEMINOLE
(PA44)
More flights by this aircraft type
Origin: KMHV Mojave
United States
Destination: KSBD San Bernardino Intl
United States
More flights between these airports :: More routes between these airports
Route: PMD V201 BERRI V459 DARTS V186 PDZ
File this flight plan on PilotEdge
Remarks:
Altitude:
(Current/Filed)
7,500ft
Speed:
(Current/Filed)
150kts
Departed: 30-May-23 06:35 PM
Arrived: 30-May-23 07:34 PM
Distance/Time
Traveled:
73nm/0:59
Distance/Time
To Go:
Arrived

Flight Plot

Page will automatically refresh every two minutes.

Flight plan parsing failed; only flown route is shown


Map Options




Map Legend


Flown Route
Filed Route
Departure Airport
Arrival Airport
Navaid (VOR, NDB)
Fix

Horizontal Profiles

Position Reports

Time Latitude Longitude Heading Altitude Ground
Speed
30-May-23 18:20 35.057270 -118.157731 176 2768ft 0kts
30-May-23 18:21 35.057270 -118.157731 176 2768ft 0kts
30-May-23 18:22 35.057270 -118.157731 176 2768ft 0kts
30-May-23 18:23 35.057270 -118.157731 176 2768ft 0kts
30-May-23 18:24 35.057270 -118.157731 176 2768ft 0kts
30-May-23 18:25 35.057270 -118.157731 176 2768ft 0kts
30-May-23 18:26 35.057270 -118.157731 176 2768ft 0kts
30-May-23 18:27 35.057270 -118.157731 176 2768ft 0kts
30-May-23 18:28 35.057184 -118.157793 250 2768ft 4kts
30-May-23 18:29 35.057373 -118.157922 5 2768ft 0kts
30-May-23 18:30 35.057629 -118.152473 92 2757ft 34kts
30-May-23 18:31 35.057584 -118.143167 86 2740ft 21kts
30-May-23 18:32 35.058407 -118.142565 358 2739ft 0kts
30-May-23 18:33 35.059060 -118.142740 313 2740ft 14kts
30-May-23 18:34 35.057853 -118.164720 228 3237ft 102kts
30-May-23 18:35 35.025363 -118.163007 170 4441ft 123kts
30-May-23 18:36 34.990691 -118.156897 179 5607ft 125kts
30-May-23 18:37 34.955767 -118.147191 164 6284ft 164kts
30-May-23 18:38 34.909536 -118.130942 173 5781ft 172kts
30-May-23 18:39 34.862465 -118.121663 176 5356ft 172kts
30-May-23 18:40 34.818481 -118.112530 171 5714ft 148kts
30-May-23 18:41 34.784211 -118.087845 146 6596ft 140kts
30-May-23 18:42 34.757588 -118.054589 131 7442ft 135kts
30-May-23 18:43 34.731700 -118.014238 129 7492ft 160kts
30-May-23 18:44 34.704383 -117.970951 129 7499ft 161kts
30-May-23 18:45 34.677455 -117.927780 129 7495ft 158kts
30-May-23 18:46 34.650922 -117.885281 129 7492ft 158kts
30-May-23 18:47 34.623746 -117.844701 159 7471ft 150kts
30-May-23 18:48 34.583175 -117.839003 177 7479ft 146kts
30-May-23 18:49 34.542567 -117.834733 193 7474ft 143kts
30-May-23 18:50 34.547926 -117.869000 303 8208ft 120kts
30-May-23 18:51 34.566173 -117.900765 297 9093ft 109kts
30-May-23 18:52 34.580997 -117.929117 297 9894ft 90kts
30-May-23 18:53 34.597818 -117.963089 291 10100ft 139kts
30-May-23 18:54 34.613607 -118.011195 289 10030ft 160kts
30-May-23 18:55 34.625365 -118.061630 240 10003ft 153kts
30-May-23 18:56 34.589975 -118.085783 202 10018ft 149kts
30-May-23 18:57 34.551856 -118.106077 201 10021ft 150kts
30-May-23 18:58 34.513327 -118.126522 202 10018ft 151kts
30-May-23 18:59 34.474664 -118.147015 202 10022ft 152kts
30-May-23 19:00 34.435651 -118.167680 202 10021ft 152kts
30-May-23 19:01 34.396705 -118.188282 203 10048ft 152kts
30-May-23 19:02 34.357781 -118.208853 203 10056ft 153kts
30-May-23 19:03 34.318631 -118.229539 203 10038ft 155kts
30-May-23 19:04 34.276011 -118.252005 204 9248ft 171kts
30-May-23 19:05 34.232099 -118.275138 204 8442ft 173kts
30-May-23 19:06 34.186848 -118.288156 149 7622ft 179kts
30-May-23 19:07 34.150800 -118.252690 102 6829ft 179kts
30-May-23 19:08 34.133535 -118.195790 110 6052ft 179kts
30-May-23 19:09 34.116401 -118.139697 110 5255ft 177kts
30-May-23 19:10 34.100023 -118.086164 110 5042ft 163kts
30-May-23 19:11 34.084376 -118.035244 110 5038ft 161kts
30-May-23 19:12 34.068790 -117.984522 110 5040ft 161kts
30-May-23 19:13 34.053320 -117.934279 110 5034ft 158kts
30-May-23 19:14 34.037975 -117.884537 110 5035ft 158kts
30-May-23 19:15 34.022555 -117.834640 110 5024ft 159kts
30-May-23 19:16 34.006971 -117.784356 110 5033ft 159kts
30-May-23 19:17 33.990498 -117.734482 113 5037ft 160kts
30-May-23 19:18 33.973155 -117.685252 113 5037ft 159kts
30-May-23 19:19 33.955909 -117.636352 113 5037ft 158kts
30-May-23 19:20 33.938722 -117.587703 113 5039ft 157kts
30-May-23 19:21 33.922752 -117.538916 89 5033ft 156kts
30-May-23 19:22 33.957156 -117.511531 22 5030ft 158kts
30-May-23 19:23 33.998140 -117.491743 20 4277ft 159kts
30-May-23 19:24 34.029164 -117.459565 75 3497ft 158kts
30-May-23 19:25 34.042846 -117.412061 70 3365ft 141kts
30-May-23 19:26 34.055914 -117.368073 70 3181ft 143kts
30-May-23 19:27 34.068129 -117.326806 71 2483ft 124kts
30-May-23 19:28 34.068973 -117.289002 104 2363ft 112kts
30-May-23 19:29 34.069666 -117.251385 70 2364ft 117kts
30-May-23 19:30 34.082889 -117.216407 63 2268ft 115kts
30-May-23 19:31 34.102888 -117.203842 295 1870ft 93kts
30-May-23 19:32 34.097173 -117.228752 248 1143ft 62kts
30-May-23 19:33 34.093679 -117.240812 274 1108ft 21kts
30-May-23 19:34 34.094161 -117.242143 356 1104ft 0kts
30-May-23 19:35 34.094161 -117.242143 356 1104ft 0kts
30-May-23 19:36 34.097196 -117.238595 34 1111ft 31kts
30-May-23 19:37 34.101070 -117.239699 330 1114ft 29kts
30-May-23 19:38 34.104492 -117.245953 1 1104ft 0kts
30-May-23 19:39 34.104492 -117.245953 1 1104ft 0kts

Navigation Log

Ident Type
Flight plan parsing failed, navigation log unavailable